VOE9BA LIPX-LIEO
Flight info
| Callsign | VOE9BA |
|---|---|
| Flight time | 0h 57m |
| Altitude | 19000 |
| Route | ITEFE T558 LUMAV/N0449F370 DCT GOXIN DCT OGAPU DCT IBRID DCT MAMAR DCT BATOX |
| Aircraft | A320/M-SDE3FGHIRWY/LB1 |
Departure
| Time | 2026-05-05 16:27 |
|---|---|
| Airport | Verona Villafranca Valerio Catullo Airport (LIPX) |
Arrival
| Time | 2026-05-05 17:25 |
|---|---|
| Airport | Olbia Costa Smeralda Airport (LIEO) |
| Time | Latitude | Longitude | Altitude | Speed | Heading |
|---|---|---|---|---|---|
| 2026-05-05 15:58 | 45.40209 | 10.90465 | 243 ft | 0 kts | 135° |
| 2026-05-05 16:19 | 45.40222 | 10.90448 | 242 ft | 3 kts | 135° |
| 2026-05-05 16:20 | 45.40238 | 10.90406 | 242 ft | 2 kts | 138° |
| 2026-05-05 16:20 | 45.40270 | 10.90361 | 242 ft | 3 kts | 134° |
| 2026-05-05 16:21 | 45.40275 | 10.90354 | 242 ft | 0 kts | 135° |
| 2026-05-05 16:23 | 45.40258 | 10.90411 | 242 ft | 5 kts | 77° |
| 2026-05-05 16:23 | 45.40274 | 10.90441 | 242 ft | 8 kts | 46° |
| 2026-05-05 16:23 | 45.40380 | 10.90596 | 242 ft | 11 kts | 45° |
| 2026-05-05 16:24 | 45.40433 | 10.90674 | 242 ft | 11 kts | 45° |
| 2026-05-05 16:24 | 45.40505 | 10.90755 | 242 ft | 9 kts | 10° |
| 2026-05-05 16:24 | 45.40583 | 10.90664 | 242 ft | 6 kts | 324° |
| 2026-05-05 16:25 | 45.40618 | 10.90642 | 243 ft | 4 kts | 335° |
| 2026-05-05 16:25 | 45.40632 | 10.90614 | 244 ft | 2 kts | 290° |
| 2026-05-05 16:25 | 45.40634 | 10.90596 | 244 ft | 3 kts | 277° |
| 2026-05-05 16:26 | 45.40624 | 10.90513 | 247 ft | 6 kts | 259° |
| 2026-05-05 16:26 | 45.40615 | 10.90373 | 248 ft | 10 kts | 227° |
| 2026-05-05 16:27 | 45.40462 | 10.90151 | 246 ft | 68 kts | 225° |
| 2026-05-05 16:27 | 45.39955 | 10.89413 | 243 ft | 135 kts | 225° |
| 2026-05-05 16:27 | 45.39188 | 10.88292 | 405 ft | 168 kts | 225° |
| 2026-05-05 16:27 | 45.38402 | 10.87108 | 1169 ft | 164 kts | 231° |
| 2026-05-05 16:28 | 45.37893 | 10.85636 | 1755 ft | 174 kts | 251° |
| 2026-05-05 16:28 | 45.37471 | 10.83936 | 2225 ft | 191 kts | 250° |
| 2026-05-05 16:28 | 45.36986 | 10.82073 | 2617 ft | 213 kts | 249° |
| 2026-05-05 16:28 | 45.36424 | 10.79983 | 3056 ft | 238 kts | 249° |
| 2026-05-05 16:29 | 45.35812 | 10.77671 | 3621 ft | 259 kts | 249° |
| 2026-05-05 16:29 | 45.35020 | 10.75342 | 4498 ft | 267 kts | 233° |
| 2026-05-05 16:29 | 45.33642 | 10.73582 | 5487 ft | 270 kts | 209° |
| 2026-05-05 16:29 | 45.31865 | 10.72725 | 6459 ft | 273 kts | 186° |
| 2026-05-05 16:30 | 45.29970 | 10.72926 | 7418 ft | 278 kts | 164° |
| 2026-05-05 16:30 | 45.28259 | 10.74211 | 8339 ft | 283 kts | 140° |
| 2026-05-05 16:30 | 45.27039 | 10.76427 | 9202 ft | 291 kts | 116° |
| 2026-05-05 16:30 | 45.26530 | 10.79222 | 10069 ft | 297 kts | 97° |
| 2026-05-05 16:31 | 45.26065 | 10.82148 | 10537 ft | 316 kts | 117° |
| 2026-05-05 16:31 | 45.24651 | 10.84615 | 10828 ft | 335 kts | 146° |
| 2026-05-05 16:31 | 45.22480 | 10.85958 | 11233 ft | 349 kts | 168° |
| 2026-05-05 16:31 | 45.20295 | 10.86537 | 11887 ft | 354 kts | 174° |
| 2026-05-05 16:32 | 45.17837 | 10.86973 | 12683 ft | 357 kts | 175° |
| 2026-05-05 16:32 | 45.15356 | 10.87428 | 13455 ft | 361 kts | 174° |
| 2026-05-05 16:32 | 45.12858 | 10.88000 | 14222 ft | 366 kts | 172° |
| 2026-05-05 16:32 | 45.10351 | 10.88701 | 14953 ft | 370 kts | 170° |
| 2026-05-05 16:33 | 45.07825 | 10.89513 | 15656 ft | 374 kts | 169° |
| 2026-05-05 16:33 | 45.05280 | 10.90391 | 16367 ft | 378 kts | 168° |
| 2026-05-05 16:33 | 45.02717 | 10.91295 | 17031 ft | 382 kts | 168° |
| 2026-05-05 16:33 | 45.00121 | 10.92203 | 17696 ft | 386 kts | 168° |
| 2026-05-05 16:34 | 44.97500 | 10.93101 | 18342 ft | 390 kts | 169° |
| 2026-05-05 16:34 | 44.94848 | 10.93994 | 18981 ft | 393 kts | 169° |
| 2026-05-05 16:34 | 44.92175 | 10.94881 | 19596 ft | 397 kts | 169° |
| 2026-05-05 16:34 | 44.89465 | 10.95774 | 20211 ft | 401 kts | 169° |
| 2026-05-05 16:35 | 44.86735 | 10.96673 | 20793 ft | 405 kts | 169° |
| 2026-05-05 16:35 | 44.83978 | 10.97581 | 21351 ft | 409 kts | 169° |
| 2026-05-05 16:35 | 44.81201 | 10.98500 | 21885 ft | 412 kts | 169° |
| 2026-05-05 16:35 | 44.78399 | 10.99436 | 22410 ft | 415 kts | 169° |
| 2026-05-05 16:36 | 44.75575 | 11.00382 | 22890 ft | 419 kts | 169° |
| 2026-05-05 16:36 | 44.72724 | 11.01330 | 23394 ft | 422 kts | 169° |
| 2026-05-05 16:36 | 44.69858 | 11.02275 | 23856 ft | 425 kts | 169° |
| 2026-05-05 16:36 | 44.66962 | 11.03229 | 24311 ft | 429 kts | 169° |
| 2026-05-05 16:37 | 44.64050 | 11.04189 | 24771 ft | 431 kts | 169° |
| 2026-05-05 16:37 | 44.61119 | 11.05156 | 25207 ft | 434 kts | 169° |
| 2026-05-05 16:37 | 44.58167 | 11.06129 | 25625 ft | 437 kts | 169° |
| 2026-05-05 16:37 | 44.55200 | 11.07100 | 26048 ft | 439 kts | 169° |
| 2026-05-05 16:38 | 44.52257 | 11.08063 | 26437 ft | 441 kts | 169° |
| 2026-05-05 16:38 | 44.49218 | 11.09057 | 26821 ft | 444 kts | 169° |
| 2026-05-05 16:38 | 44.46241 | 11.10032 | 27189 ft | 446 kts | 169° |
| 2026-05-05 16:38 | 44.43173 | 11.11040 | 27559 ft | 448 kts | 169° |
| 2026-05-05 16:39 | 44.40124 | 11.12042 | 27914 ft | 451 kts | 169° |
| 2026-05-05 16:39 | 44.37066 | 11.13047 | 28229 ft | 453 kts | 169° |
| 2026-05-05 16:39 | 44.33991 | 11.14053 | 28549 ft | 455 kts | 169° |
| 2026-05-05 16:39 | 44.30941 | 11.15044 | 28862 ft | 457 kts | 169° |
| 2026-05-05 16:40 | 44.27803 | 11.16061 | 29167 ft | 458 kts | 169° |
| 2026-05-05 16:40 | 44.24689 | 11.17070 | 29443 ft | 460 kts | 169° |
| 2026-05-05 16:40 | 44.21567 | 11.18086 | 29718 ft | 461 kts | 169° |
| 2026-05-05 16:40 | 44.18487 | 11.19086 | 30066 ft | 460 kts | 169° |
| 2026-05-05 16:41 | 44.15369 | 11.20099 | 30424 ft | 459 kts | 169° |
| 2026-05-05 16:41 | 44.12266 | 11.21107 | 30779 ft | 458 kts | 169° |
| 2026-05-05 16:41 | 44.09161 | 11.22112 | 31120 ft | 458 kts | 169° |
| 2026-05-05 16:41 | 44.06066 | 11.23115 | 31466 ft | 457 kts | 169° |
| 2026-05-05 16:42 | 44.02972 | 11.24111 | 31802 ft | 456 kts | 169° |
| 2026-05-05 16:42 | 43.99881 | 11.25101 | 31976 ft | 455 kts | 170° |
| 2026-05-05 16:42 | 43.93731 | 11.27077 | 32008 ft | 453 kts | 170° |
| 2026-05-05 16:43 | 43.87607 | 11.29050 | 32008 ft | 451 kts | 170° |
| 2026-05-05 16:43 | 43.81604 | 11.30980 | 32008 ft | 440 kts | 170° |
| 2026-05-05 16:44 | 43.78614 | 11.31941 | 32171 ft | 442 kts | 170° |
| 2026-05-05 16:44 | 43.75621 | 11.32899 | 32603 ft | 440 kts | 170° |
| 2026-05-05 16:44 | 43.72638 | 11.33849 | 32934 ft | 440 kts | 170° |
| 2026-05-05 16:44 | 43.69661 | 11.34796 | 33000 ft | 437 kts | 170° |
| 2026-05-05 16:45 | 43.63729 | 11.36685 | 32999 ft | 439 kts | 170° |
| 2026-05-05 16:45 | 43.57693 | 11.38604 | 32999 ft | 450 kts | 170° |
| 2026-05-05 16:46 | 43.51539 | 11.40554 | 33335 ft | 456 kts | 170° |
| 2026-05-05 16:46 | 43.48422 | 11.41258 | 33616 ft | 451 kts | 179° |
| 2026-05-05 16:46 | 43.45302 | 11.41239 | 33898 ft | 447 kts | 188° |
| 2026-05-05 16:47 | 43.39165 | 11.40074 | 33999 ft | 444 kts | 191° |
| 2026-05-05 16:47 | 43.33105 | 11.38885 | 33998 ft | 432 kts | 191° |
| 2026-05-05 16:48 | 43.27164 | 11.37726 | 34311 ft | 433 kts | 191° |
| 2026-05-05 16:48 | 43.24191 | 11.37140 | 34653 ft | 433 kts | 191° |
| 2026-05-05 16:48 | 43.21240 | 11.36560 | 34950 ft | 433 kts | 191° |
| 2026-05-05 16:49 | 43.15297 | 11.35406 | 35005 ft | 431 kts | 191° |
| 2026-05-05 16:49 | 43.09311 | 11.34243 | 35006 ft | 440 kts | 191° |
| 2026-05-05 16:50 | 43.03215 | 11.33053 | 35361 ft | 443 kts | 191° |
| 2026-05-05 16:50 | 43.00159 | 11.32463 | 35633 ft | 443 kts | 191° |
| 2026-05-05 16:50 | 42.97106 | 11.31874 | 35866 ft | 443 kts | 191° |
| 2026-05-05 16:51 | 42.94051 | 11.31288 | 35995 ft | 443 kts | 191° |
| 2026-05-05 16:51 | 42.90996 | 11.30704 | 36009 ft | 443 kts | 191° |
| 2026-05-05 16:51 | 42.84912 | 11.29537 | 36010 ft | 441 kts | 191° |
| 2026-05-05 16:52 | 42.78830 | 11.28370 | 36223 ft | 443 kts | 191° |
| 2026-05-05 16:52 | 42.75775 | 11.27783 | 36475 ft | 442 kts | 191° |
| 2026-05-05 16:52 | 42.72754 | 11.27202 | 36922 ft | 438 kts | 191° |
| 2026-05-05 16:53 | 42.66754 | 11.26056 | 37018 ft | 433 kts | 191° |
| 2026-05-05 16:53 | 42.60791 | 11.24913 | 37017 ft | 432 kts | 191° |
| 2026-05-05 16:54 | 42.54834 | 11.23766 | 37288 ft | 433 kts | 191° |
| 2026-05-05 16:54 | 42.51849 | 11.23194 | 37513 ft | 433 kts | 191° |
| 2026-05-05 16:54 | 42.48871 | 11.22626 | 37732 ft | 432 kts | 191° |
| 2026-05-05 16:55 | 42.45891 | 11.22061 | 37925 ft | 432 kts | 191° |
| 2026-05-05 16:55 | 42.42949 | 11.21507 | 38039 ft | 433 kts | 191° |
| 2026-05-05 16:55 | 42.36993 | 11.20387 | 38054 ft | 430 kts | 191° |
| 2026-05-05 16:56 | 42.31129 | 11.19282 | 37333 ft | 426 kts | 191° |
| 2026-05-05 16:56 | 42.28186 | 11.18723 | 37092 ft | 428 kts | 191° |
| 2026-05-05 16:56 | 42.25231 | 11.18157 | 37044 ft | 430 kts | 191° |
| 2026-05-05 16:57 | 42.19283 | 11.17025 | 37056 ft | 432 kts | 191° |
| 2026-05-05 16:57 | 42.13323 | 11.15916 | 37055 ft | 433 kts | 191° |
| 2026-05-05 16:58 | 42.07363 | 11.14804 | 37048 ft | 432 kts | 191° |
| 2026-05-05 16:58 | 42.01401 | 11.13677 | 37044 ft | 432 kts | 191° |
| 2026-05-05 16:59 | 41.95444 | 11.12556 | 37048 ft | 433 kts | 191° |
| 2026-05-05 16:59 | 41.89473 | 11.11439 | 37049 ft | 433 kts | 191° |
| 2026-05-05 17:00 | 41.83572 | 11.09959 | 37045 ft | 428 kts | 203° |
| 2026-05-05 17:00 | 41.78469 | 11.06108 | 37042 ft | 419 kts | 223° |
| 2026-05-05 17:01 | 41.74587 | 11.00347 | 37044 ft | 417 kts | 232° |
| 2026-05-05 17:01 | 41.70884 | 10.94386 | 37043 ft | 416 kts | 232° |
| 2026-05-05 17:02 | 41.67167 | 10.88444 | 37045 ft | 416 kts | 232° |
| 2026-05-05 17:02 | 41.65315 | 10.85483 | 36691 ft | 414 kts | 232° |
| 2026-05-05 17:02 | 41.63469 | 10.82525 | 35953 ft | 415 kts | 232° |
| 2026-05-05 17:03 | 41.61618 | 10.79557 | 35113 ft | 418 kts | 232° |
| 2026-05-05 17:03 | 41.59746 | 10.76555 | 34167 ft | 423 kts | 232° |
| 2026-05-05 17:03 | 41.57850 | 10.73523 | 33228 ft | 427 kts | 232° |
| 2026-05-05 17:03 | 41.55937 | 10.70471 | 32294 ft | 430 kts | 232° |
| 2026-05-05 17:04 | 41.54013 | 10.67398 | 31334 ft | 433 kts | 232° |
| 2026-05-05 17:04 | 41.52082 | 10.64315 | 30337 ft | 435 kts | 231° |
| 2026-05-05 17:04 | 41.50130 | 10.61206 | 29291 ft | 438 kts | 231° |
| 2026-05-05 17:04 | 41.48164 | 10.58078 | 28177 ft | 441 kts | 231° |
| 2026-05-05 17:05 | 41.46198 | 10.54953 | 27516 ft | 434 kts | 231° |
| 2026-05-05 17:05 | 41.44277 | 10.51914 | 27018 ft | 424 kts | 231° |
| 2026-05-05 17:05 | 41.42416 | 10.48963 | 26391 ft | 419 kts | 231° |
| 2026-05-05 17:05 | 41.40553 | 10.46006 | 25725 ft | 415 kts | 231° |
| 2026-05-05 17:06 | 41.38680 | 10.43042 | 25047 ft | 411 kts | 231° |
| 2026-05-05 17:06 | 41.36870 | 10.40180 | 24383 ft | 408 kts | 231° |
| 2026-05-05 17:06 | 41.35047 | 10.37296 | 23705 ft | 405 kts | 231° |
| 2026-05-05 17:06 | 41.33239 | 10.34438 | 23061 ft | 402 kts | 231° |
| 2026-05-05 17:07 | 41.31442 | 10.31604 | 22446 ft | 399 kts | 230° |
| 2026-05-05 17:07 | 41.29662 | 10.28797 | 21856 ft | 396 kts | 230° |
| 2026-05-05 17:07 | 41.27892 | 10.26017 | 21301 ft | 392 kts | 230° |
| 2026-05-05 17:07 | 41.26136 | 10.23263 | 20744 ft | 389 kts | 230° |
| 2026-05-05 17:08 | 41.24394 | 10.20535 | 20201 ft | 386 kts | 230° |
| 2026-05-05 17:08 | 41.22663 | 10.17826 | 19665 ft | 383 kts | 230° |
| 2026-05-05 17:08 | 41.20831 | 10.15285 | 19135 ft | 380 kts | 222° |
| 2026-05-05 17:08 | 41.18764 | 10.13113 | 18591 ft | 378 kts | 218° |
| 2026-05-05 17:09 | 41.16670 | 10.11017 | 18059 ft | 375 kts | 218° |
| 2026-05-05 17:09 | 41.14596 | 10.08942 | 17528 ft | 372 kts | 218° |
| 2026-05-05 17:09 | 41.12535 | 10.06881 | 17004 ft | 370 kts | 218° |
| 2026-05-05 17:09 | 41.10489 | 10.04835 | 16483 ft | 367 kts | 218° |
| 2026-05-05 17:10 | 41.08462 | 10.02808 | 15964 ft | 364 kts | 218° |
| 2026-05-05 17:10 | 41.06447 | 10.00796 | 15448 ft | 361 kts | 218° |
| 2026-05-05 17:10 | 41.04449 | 9.98801 | 14953 ft | 358 kts | 218° |
| 2026-05-05 17:10 | 41.02471 | 9.96823 | 14447 ft | 355 kts | 218° |
| 2026-05-05 17:11 | 41.01170 | 9.95524 | 14099 ft | 353 kts | 218° |
| 2026-05-05 17:11 | 40.99215 | 9.93574 | 13583 ft | 351 kts | 218° |
| 2026-05-05 17:11 | 40.97270 | 9.91638 | 13063 ft | 348 kts | 218° |
| 2026-05-05 17:11 | 40.95449 | 9.89566 | 12555 ft | 344 kts | 227° |
| 2026-05-05 17:12 | 40.93980 | 9.87095 | 12016 ft | 341 kts | 236° |
| 2026-05-05 17:12 | 40.92656 | 9.84518 | 11514 ft | 337 kts | 236° |
| 2026-05-05 17:12 | 40.91360 | 9.82015 | 11382 ft | 323 kts | 236° |
| 2026-05-05 17:12 | 40.90116 | 9.79624 | 11260 ft | 309 kts | 236° |
| 2026-05-05 17:13 | 40.88917 | 9.77331 | 11136 ft | 297 kts | 236° |
| 2026-05-05 17:13 | 40.87766 | 9.75128 | 11009 ft | 286 kts | 236° |
| 2026-05-05 17:13 | 40.86660 | 9.73006 | 10882 ft | 275 kts | 236° |
| 2026-05-05 17:13 | 40.85596 | 9.70964 | 10747 ft | 265 kts | 236° |
| 2026-05-05 17:14 | 40.84561 | 9.68976 | 10485 ft | 261 kts | 236° |
| 2026-05-05 17:14 | 40.83534 | 9.67010 | 10146 ft | 260 kts | 236° |
| 2026-05-05 17:14 | 40.82509 | 9.65052 | 9793 ft | 259 kts | 236° |
| 2026-05-05 17:14 | 40.81484 | 9.63101 | 9427 ft | 258 kts | 236° |
| 2026-05-05 17:15 | 40.80460 | 9.61151 | 9055 ft | 258 kts | 236° |
| 2026-05-05 17:15 | 40.79439 | 9.59205 | 8675 ft | 258 kts | 236° |
| 2026-05-05 17:15 | 40.78427 | 9.57273 | 8298 ft | 256 kts | 236° |
| 2026-05-05 17:15 | 40.77414 | 9.55330 | 7927 ft | 255 kts | 236° |
| 2026-05-05 17:16 | 40.76452 | 9.53483 | 7562 ft | 254 kts | 235° |
| 2026-05-05 17:16 | 40.75991 | 9.52601 | 7387 ft | 253 kts | 235° |
| 2026-05-05 17:16 | 40.74990 | 9.50677 | 7028 ft | 253 kts | 235° |
| 2026-05-05 17:16 | 40.73989 | 9.48779 | 6671 ft | 251 kts | 234° |
| 2026-05-05 17:17 | 40.72998 | 9.46900 | 6303 ft | 249 kts | 234° |
| 2026-05-05 17:17 | 40.72012 | 9.45028 | 5925 ft | 247 kts | 234° |
| 2026-05-05 17:17 | 40.71032 | 9.43174 | 5536 ft | 245 kts | 234° |
| 2026-05-05 17:17 | 40.70057 | 9.41326 | 5133 ft | 245 kts | 234° |
| 2026-05-05 17:18 | 40.69330 | 9.39324 | 4999 ft | 239 kts | 256° |
| 2026-05-05 17:18 | 40.69320 | 9.37218 | 5002 ft | 230 kts | 282° |
| 2026-05-05 17:18 | 40.69855 | 9.35235 | 5004 ft | 230 kts | 292° |
| 2026-05-05 17:18 | 40.70503 | 9.33335 | 5003 ft | 225 kts | 294° |
| 2026-05-05 17:19 | 40.71151 | 9.31465 | 5004 ft | 224 kts | 293° |
| 2026-05-05 17:19 | 40.71799 | 9.29598 | 5005 ft | 223 kts | 293° |
| 2026-05-05 17:19 | 40.72448 | 9.27735 | 5002 ft | 224 kts | 296° |
| 2026-05-05 17:19 | 40.73431 | 9.26197 | 4759 ft | 222 kts | 328° |
| 2026-05-05 17:20 | 40.74873 | 9.25674 | 4611 ft | 213 kts | 3° |
| 2026-05-05 17:20 | 40.76241 | 9.26249 | 4461 ft | 205 kts | 36° |
| 2026-05-05 17:20 | 40.77190 | 9.27615 | 4213 ft | 202 kts | 56° |
| 2026-05-05 17:20 | 40.77987 | 9.29142 | 3927 ft | 202 kts | 57° |
| 2026-05-05 17:21 | 40.78783 | 9.30665 | 3815 ft | 202 kts | 57° |
| 2026-05-05 17:21 | 40.79582 | 9.32184 | 3782 ft | 203 kts | 57° |
| 2026-05-05 17:21 | 40.80390 | 9.33718 | 3567 ft | 204 kts | 57° |
| 2026-05-05 17:22 | 40.82004 | 9.36787 | 3004 ft | 200 kts | 57° |
| 2026-05-05 17:22 | 40.82806 | 9.38302 | 2671 ft | 202 kts | 56° |
| 2026-05-05 17:22 | 40.83591 | 9.39798 | 2351 ft | 193 kts | 56° |
| 2026-05-05 17:22 | 40.84331 | 9.41207 | 2048 ft | 181 kts | 55° |
| 2026-05-05 17:23 | 40.85015 | 9.42509 | 1811 ft | 163 kts | 55° |
| 2026-05-05 17:23 | 40.85640 | 9.43702 | 1541 ft | 151 kts | 55° |
| 2026-05-05 17:23 | 40.86225 | 9.44814 | 1315 ft | 144 kts | 54° |
| 2026-05-05 17:23 | 40.86788 | 9.45888 | 1099 ft | 141 kts | 54° |
| 2026-05-05 17:24 | 40.87333 | 9.46929 | 916 ft | 139 kts | 54° |
| 2026-05-05 17:24 | 40.87888 | 9.47988 | 703 ft | 138 kts | 54° |
| 2026-05-05 17:24 | 40.88424 | 9.49010 | 489 ft | 137 kts | 54° |
| 2026-05-05 17:24 | 40.88966 | 9.50044 | 265 ft | 136 kts | 54° |
| 2026-05-05 17:25 | 40.89502 | 9.51072 | 49 ft | 134 kts | 54° |
| 2026-05-05 17:25 | 40.89839 | 9.51706 | 32 ft | 113 kts | 54° |
| 2026-05-05 17:25 | 40.90259 | 9.52509 | 32 ft | 45 kts | 57° |
| 2026-05-05 17:25 | 40.90355 | 9.52672 | 34 ft | 15 kts | 41° |
| 2026-05-05 17:26 | 40.90442 | 9.52664 | 34 ft | 12 kts | 307° |
| 2026-05-05 17:26 | 40.90446 | 9.52567 | 32 ft | 9 kts | 270° |
| 2026-05-05 17:26 | 40.90448 | 9.52491 | 34 ft | 8 kts | 256° |
| 2026-05-05 17:26 | 40.90422 | 9.52434 | 34 ft | 7 kts | 236° |
| 2026-05-05 17:27 | 40.90397 | 9.52385 | 34 ft | 6 kts | 235° |
| 2026-05-05 17:27 | 40.90372 | 9.52339 | 34 ft | 8 kts | 234° |
| 2026-05-05 17:27 | 40.90324 | 9.52251 | 33 ft | 15 kts | 234° |
| 2026-05-05 17:27 | 40.90259 | 9.52124 | 33 ft | 18 kts | 234° |
| 2026-05-05 17:28 | 40.90188 | 9.51981 | 34 ft | 20 kts | 234° |
| 2026-05-05 17:28 | 40.90185 | 9.51838 | 34 ft | 13 kts | 294° |
| 2026-05-05 17:28 | 40.90227 | 9.51788 | 33 ft | 6 kts | 351° |
| 2026-05-05 17:28 | 40.90264 | 9.51789 | 34 ft | 5 kts | 338° |
| 2026-05-05 17:29 | 40.90289 | 9.51767 | 34 ft | 4 kts | 327° |
| 2026-05-05 17:29 | 40.90307 | 9.51770 | 34 ft | 2 kts | 27° |
| 2026-05-05 17:29 | 40.90309 | 9.51772 | 34 ft | 0 kts | 27° |
| 2026-05-05 17:29 | 40.90310 | 9.51772 | 34 ft | 0 kts | 27° |